Manila Express — VRCX7 — position and weather

sailwx.info

Track history (hours):
 
Tides and Currents Weather Stations Pressure Air Temp Water Temp Dewpoint Dewpoint Depression Visibility Wind Speed Wind Dir Waves Ship Positions

Manila Express

Last reported at 2016-Aug-28 18:00 UTC. Time now 2016-Aug-30 09:05 UTC.
Position N 27°30' W 092°12'.

Length 260 m; draft 10.9 m.

Type: Ship (hazmat cat A). MMSI: 477830800.

Wind from 110 at 3 knots

Waves 0.5 meters (2 feet), 2 second period

Barometer 1014.4 mb
Air temperature 29.5 ° C
Visibility: greater than 10.8 NM
Dewpoint 25.3 ° C
Water temperature 30.0 ° C

Date/timePositionNaut miles runAvg speedWind from/ knotsBaromVisibWave heightAir tempDewpointWater temp
2016-Aug-28 18:00N 27°30' W 092°12'17518.3 110 / 31014.410.8 0.529.525.330.0
2016-Aug-28 08:24N 29°21' W 094°46'1011.2
2016-Aug-28 07:33N 29°29' W 094°52'1211.7
2016-Aug-28 06:33N 29°39' W 094°58'2 2.3
2016-Aug-28 05:33N 29°41' W 095°00'0 0.0
2016-Aug-28 04:33N 29°41' W 095°00'0 0.0
2016-Aug-28 03:30N 29°41' W 095°00'0 0.0
2016-Aug-28 02:33N 29°41' W 095°00'0 0.0
2016-Aug-28 01:33N 29°41' W 095°00'0 0.0
2016-Aug-28 00:33N 29°41' W 095°00'0 0.0
2016-Aug-27 23:33N 29°41' W 095°00'0 0.0
2016-Aug-27 22:33N 29°41' W 095°00'0 0.0
2016-Aug-27 21:32N 29°41' W 095°00'0 0.0
2016-Aug-27 20:34N 29°41' W 095°00'0 0.0
2016-Aug-27 19:33N 29°41' W 095°00'0 0.0
2016-Aug-27 18:33N 29°41' W 095°00'0 0.0
2016-Aug-27 17:32N 29°41' W 095°00'0 0.0
2016-Aug-27 16:32N 29°41' W 095°00'0 0.0
2016-Aug-27 15:33N 29°41' W 095°00'0 0.0
2016-Aug-27 14:33N 29°41' W 095°00'0 0.0
2016-Aug-27 13:33N 29°41' W 095°00'0 0.0
2016-Aug-27 12:33N 29°41' W 095°00'0 0.0
2016-Aug-27 11:33N 29°41' W 095°00'0 0.2
2016-Aug-27 10:33N 29°41' W 095°00'6 5.8
2016-Aug-27 09:32N 29°36' W 094°57'1312.9
2016-Aug-27 08:33N 29°25' W 094°49'59615.7
2016-Aug-25 18:33N 19°32' W 095°55'1717.2
2016-Aug-25 17:33N 19°15' W 095°57'1010.3
2016-Aug-25 16:34N 19°12' W 096°08'0 0.4
2016-Aug-25 15:29N 19°13' W 096°08'0 0.0
2016-Aug-25 14:29N 19°13' W 096°08'0 0.0
2016-Aug-25 13:32N 19°13' W 096°08'0 0.0
2016-Aug-25 12:32N 19°13' W 096°08'0 0.0
2016-Aug-25 11:32N 19°13' W 096°08'0 0.0
2016-Aug-25 10:32N 19°13' W 096°08'0 0.0
2016-Aug-25 09:32N 19°13' W 096°08'0 0.0
2016-Aug-25 08:32N 19°13' W 096°08'0 0.0
2016-Aug-25 07:32N 19°13' W 096°08'0 0.0
2016-Aug-25 06:32N 19°13' W 096°08'0 0.0
2016-Aug-25 04:32N 19°13' W 096°08'0 0.0
2016-Aug-25 03:31N 19°13' W 096°08'1 0.6
2016-Aug-25 02:34N 19°12' W 096°08'6 6.1
2016-Aug-25 01:33N 19°13' W 096°01'10 9.7
2016-Aug-25 00:33N 19°23' W 096°00'3 2.5
2016-Aug-24 23:33N 19°25' W 095°59'0 0.4
2016-Aug-24 22:33N 19°25' W 095°59'0 0.2
2016-Aug-24 21:33N 19°25' W 095°59'0 0.1
2016-Aug-24 20:33N 19°25' W 095°58'0 0.4
2016-Aug-24 19:33N 19°25' W 095°58'0 0.3
2016-Aug-24 18:33N 19°26' W 095°58'1 0.8
2016-Aug-24 17:33N 19°26' W 095°58'4 4.5
2016-Aug-24 16:33N 19°24' W 096°02'10 9.7
2016-Aug-24 15:33N 19°33' W 096°06'1211.8
2016-Aug-24 14:33N 19°44' W 096°11'  
Track history (hours):
 
Tides and Currents Weather Stations Pressure Air Temp Water Temp Dewpoint Dewpoint Depression Visibility Wind Speed Wind Dir Waves Ship Positions

Manila Express

Last reported at 2016-Aug-28 18:00 UTC. Time now 2016-Aug-30 09:05 UTC.
Position N 27°30' W 092°12'.

Length 260 m; draft 10.9 m.

Type: Ship (hazmat cat A). MMSI: 477830800.

Wind from 110 at 3 knots

Waves 0.5 meters (2 feet), 2 second period

Barometer 1014.4 mb
Air temperature 29.5 ° C
Visibility: greater than 10.8 NM
Dewpoint 25.3 ° C
Water temperature 30.0 ° C

Date/timePositionNaut miles runAvg speedWind from/ knotsBaromVisibWave heightAir tempDewpointWater temp
2016-Aug-28 18:00N 27°30' W 092°12'17518.3 110 / 31014.410.8 0.529.525.330.0
2016-Aug-28 08:24N 29°21' W 094°46'1011.2
2016-Aug-28 07:33N 29°29' W 094°52'1211.7
2016-Aug-28 06:33N 29°39' W 094°58'2 2.3
2016-Aug-28 05:33N 29°41' W 095°00'0 0.0
2016-Aug-28 04:33N 29°41' W 095°00'0 0.0
2016-Aug-28 03:30N 29°41' W 095°00'0 0.0
2016-Aug-28 02:33N 29°41' W 095°00'0 0.0
2016-Aug-28 01:33N 29°41' W 095°00'0 0.0
2016-Aug-28 00:33N 29°41' W 095°00'0 0.0
2016-Aug-27 23:33N 29°41' W 095°00'0 0.0
2016-Aug-27 22:33N 29°41' W 095°00'0 0.0
2016-Aug-27 21:32N 29°41' W 095°00'0 0.0
2016-Aug-27 20:34N 29°41' W 095°00'0 0.0
2016-Aug-27 19:33N 29°41' W 095°00'0 0.0
2016-Aug-27 18:33N 29°41' W 095°00'0 0.0
2016-Aug-27 17:32N 29°41' W 095°00'0 0.0
2016-Aug-27 16:32N 29°41' W 095°00'0 0.0
2016-Aug-27 15:33N 29°41' W 095°00'0 0.0
2016-Aug-27 14:33N 29°41' W 095°00'0 0.0
2016-Aug-27 13:33N 29°41' W 095°00'0 0.0
2016-Aug-27 12:33N 29°41' W 095°00'0 0.0
2016-Aug-27 11:33N 29°41' W 095°00'0 0.2
2016-Aug-27 10:33N 29°41' W 095°00'6 5.8
2016-Aug-27 09:32N 29°36' W 094°57'1312.9
2016-Aug-27 08:33N 29°25' W 094°49'59615.7
2016-Aug-25 18:33N 19°32' W 095°55'1717.2
2016-Aug-25 17:33N 19°15' W 095°57'1010.3
2016-Aug-25 16:34N 19°12' W 096°08'0 0.4
2016-Aug-25 15:29N 19°13' W 096°08'0 0.0
2016-Aug-25 14:29N 19°13' W 096°08'0 0.0
2016-Aug-25 13:32N 19°13' W 096°08'0 0.0
2016-Aug-25 12:32N 19°13' W 096°08'0 0.0
2016-Aug-25 11:32N 19°13' W 096°08'0 0.0
2016-Aug-25 10:32N 19°13' W 096°08'0 0.0
2016-Aug-25 09:32N 19°13' W 096°08'0 0.0
2016-Aug-25 08:32N 19°13' W 096°08'0 0.0
2016-Aug-25 07:32N 19°13' W 096°08'0 0.0
2016-Aug-25 06:32N 19°13' W 096°08'0 0.0
2016-Aug-25 04:32N 19°13' W 096°08'0 0.0
2016-Aug-25 03:31N 19°13' W 096°08'1 0.6
2016-Aug-25 02:34N 19°12' W 096°08'6 6.1
2016-Aug-25 01:33N 19°13' W 096°01'10 9.7
2016-Aug-25 00:33N 19°23' W 096°00'3 2.5
2016-Aug-24 23:33N 19°25' W 095°59'0 0.4
2016-Aug-24 22:33N 19°25' W 095°59'0 0.2
2016-Aug-24 21:33N 19°25' W 095°59'0 0.1
2016-Aug-24 20:33N 19°25' W 095°58'0 0.4
2016-Aug-24 19:33N 19°25' W 095°58'0 0.3
2016-Aug-24 18:33N 19°26' W 095°58'1 0.8
2016-Aug-24 17:33N 19°26' W 095°58'4 4.5
2016-Aug-24 16:33N 19°24' W 096°02'10 9.7
2016-Aug-24 15:33N 19°33' W 096°06'1211.8
2016-Aug-24 14:33N 19°44' W 096°11'  

Dump ship's entire track history